createdAt,value
2022-08-09T00:02:36.254Z,74.22
2022-08-09T00:08:48.456Z,74.97
2022-08-09T00:14:56.678Z,74.96
2022-08-09T00:20:59.195Z,75.18
2022-08-09T00:27:01.998Z,76.22
2022-08-09T00:33:04.103Z,77.18
2022-08-09T00:39:06.567Z,78.70
2022-08-09T00:45:20.264Z,78.97
2022-08-09T00:51:23.205Z,79.04
2022-08-09T00:57:34.827Z,79.79
2022-08-09T01:04:30.178Z,80.27
2022-08-09T01:11:15.013Z,80.08
2022-08-09T01:17:30.254Z,79.17
2022-08-09T01:24:05.329Z,78.45
2022-08-09T01:30:35.506Z,78.72
2022-08-09T01:36:33.508Z,78.09
2022-08-09T01:42:38.950Z,77.95
2022-08-09T01:48:44.229Z,79.65
2022-08-09T01:54:56.630Z,79.81
2022-08-09T02:01:01.101Z,80.71
2022-08-09T02:07:18.231Z,81.82
2022-08-09T02:13:40.841Z,81.84
2022-08-09T02:19:44.461Z,82.53
2022-08-09T02:25:55.560Z,81.99
2022-08-09T02:32:03.838Z,83.16
2022-08-09T02:38:10.599Z,83.84
2022-08-09T02:44:30.568Z,83.75
2022-08-09T02:50:56.384Z,83.87
2022-08-09T02:57:14.072Z,83.99
2022-08-09T03:03:59.591Z,83.32
2022-08-09T03:09:54.277Z,83.00
2022-08-09T03:16:06.573Z,82.50
2022-08-09T03:22:12.172Z,82.11
2022-08-09T03:28:29.035Z,82.58
2022-08-09T03:34:32.274Z,82.65
2022-08-09T03:40:34.374Z,84.93
2022-08-09T03:46:36.782Z,86.99
2022-08-09T03:52:42.484Z,86.95
2022-08-09T03:58:44.913Z,86.51
2022-08-09T04:04:48.295Z,86.35
2022-08-09T04:10:53.043Z,86.17
2022-08-09T04:16:57.291Z,85.83
2022-08-09T04:22:59.633Z,85.62
2022-08-09T04:29:07.869Z,85.59
2022-08-09T04:35:13.807Z,84.69
2022-08-09T04:41:17.507Z,84.75
2022-08-09T04:47:19.515Z,84.57
2022-08-09T04:53:22.528Z,84.04
2022-08-09T04:59:24.959Z,83.65
2022-08-09T05:05:52.617Z,84.07
2022-08-09T05:11:55.020Z,83.58
2022-08-09T05:18:37.603Z,83.36
2022-08-09T05:24:21.139Z,82.43
2022-08-09T05:30:26.290Z,80.70
2022-08-09T05:36:33.145Z,80.07
2022-08-09T05:42:35.547Z,80.00
2022-08-09T05:48:39.459Z,79.37
2022-08-09T05:54:42.390Z,78.00
2022-08-09T06:00:44.432Z,78.23
2022-08-09T06:06:49.918Z,76.78
2022-08-09T06:13:03.072Z,75.64
2022-08-09T06:19:14.852Z,74.80
2022-08-09T06:25:17.031Z,72.32
2022-08-09T06:31:31.428Z,72.78
2022-08-09T06:37:53.064Z,69.73
2022-08-09T06:44:04.005Z,69.61
2022-08-09T06:50:13.921Z,68.21
2022-08-09T06:56:17.586Z,67.48
2022-08-09T07:02:20.592Z,65.74
2022-08-09T07:08:24.794Z,66.45
2022-08-09T07:14:27.347Z,64.50
2022-08-09T07:20:29.397Z,62.99
2022-08-09T07:26:31.613Z,62.38
2022-08-09T07:32:34.661Z,61.67
2022-08-09T07:38:36.989Z,59.70
2022-08-09T07:44:51.823Z,58.73
2022-08-09T07:51:10.215Z,57.02
2022-08-09T07:57:17.681Z,56.11
2022-08-09T08:03:20.349Z,53.57
2022-08-09T08:09:36.473Z,53.95
2022-08-09T08:15:46.563Z,51.78
2022-08-09T08:21:53.160Z,51.30
2022-08-09T08:27:55.214Z,48.85
2022-08-09T08:34:00.104Z,46.80
2022-08-09T08:40:06.429Z,46.25
2022-08-09T08:46:32.151Z,44.53
2022-08-09T08:52:57.683Z,42.80
2022-08-09T08:58:55.662Z,41.42
2022-08-09T09:05:06.249Z,39.50
2022-08-09T09:11:17.689Z,39.52
2022-08-09T09:17:21.858Z,40.11
2022-08-09T09:23:49.943Z,38.44
2022-08-09T09:30:26.246Z,37.75
2022-08-09T09:36:47.043Z,34.96
2022-08-09T09:42:57.571Z,34.34
2022-08-09T09:49:10.355Z,35.89
2022-08-09T09:55:23.828Z,33.32
2022-08-09T10:01:38.231Z,34.56
2022-08-09T10:08:10.823Z,32.41
2022-08-09T10:14:04.885Z,33.25
2022-08-09T10:20:26.640Z,32.42
2022-08-09T10:26:34.848Z,33.40
2022-08-09T10:32:40.114Z,33.22
2022-08-09T10:38:56.825Z,31.86
2022-08-09T10:45:10.705Z,30.23
2022-08-09T10:51:52.799Z,30.67
2022-08-09T10:58:00.353Z,29.14
2022-08-09T11:04:30.631Z,29.03
2022-08-09T11:10:56.021Z,28.71
2022-08-09T11:16:58.744Z,28.23
2022-08-09T11:23:03.017Z,27.25
2022-08-09T11:30:04.327Z,26.24
2022-08-09T11:36:08.451Z,25.33
2022-08-09T11:42:41.010Z,24.57
2022-08-09T11:48:55.895Z,23.93
2022-08-09T11:55:52.261Z,23.69
2022-08-09T12:02:16.035Z,23.00
2022-08-09T12:08:20.086Z,23.45
2022-08-09T12:14:40.461Z,24.31
2022-08-09T12:20:50.936Z,23.19
2022-08-09T12:28:58.338Z,22.24
2022-08-09T12:33:23.697Z,22.62
2022-08-09T12:40:41.677Z,21.89
2022-08-09T12:46:49.234Z,22.74
2022-08-09T12:53:09.429Z,24.59
2022-08-09T12:59:20.000Z,22.79
2022-08-09T13:05:25.470Z,22.11
2022-08-09T13:11:33.747Z,22.29
2022-08-09T13:18:02.791Z,21.04
2022-08-09T13:24:42.214Z,21.11
2022-08-09T13:31:10.942Z,23.01
2022-08-09T13:36:48.828Z,23.66
2022-08-09T13:42:51.170Z,24.88
2022-08-09T13:48:53.148Z,24.35
2022-08-09T13:55:00.496Z,22.49
2022-08-09T14:01:04.183Z,21.62
2022-08-09T14:07:09.899Z,21.56
2022-08-09T14:13:21.810Z,20.93
2022-08-09T14:19:33.559Z,19.95
2022-08-09T14:25:42.644Z,19.69
2022-08-09T14:31:50.196Z,19.11
2022-08-09T14:38:02.813Z,19.39
2022-08-09T14:44:06.730Z,18.98
2022-08-09T14:50:09.299Z,19.63
2022-08-09T14:56:13.140Z,19.86
2022-08-09T15:02:15.861Z,18.73
2022-08-09T15:08:19.002Z,18.05
2022-08-09T15:14:21.010Z,18.99
2022-08-09T15:22:00.540Z,18.21
2022-08-09T15:26:46.901Z,18.13
2022-08-09T15:32:49.323Z,18.60
2022-08-09T15:38:53.468Z,18.66
2022-08-09T15:45:03.231Z,18.84
2022-08-09T15:51:11.597Z,19.37
2022-08-09T15:57:34.213Z,20.00
2022-08-09T16:03:41.782Z,19.51
2022-08-09T16:09:57.681Z,19.04
2022-08-09T16:16:13.549Z,18.54
2022-08-09T16:22:20.751Z,19.32
2022-08-09T16:28:25.965Z,20.27
2022-08-09T16:34:28.742Z,20.08
2022-08-09T16:40:40.929Z,19.72
2022-08-09T16:46:55.165Z,20.42
2022-08-09T16:52:57.872Z,21.61
2022-08-09T16:59:06.685Z,22.09
2022-08-09T17:05:19.726Z,22.41
2022-08-09T17:11:24.509Z,22.63
2022-08-09T17:17:50.954Z,22.22
2022-08-09T17:24:21.348Z,22.60
2022-08-09T17:30:15.424Z,24.33
2022-08-09T17:36:18.657Z,24.54
2022-08-09T17:42:41.302Z,25.21
2022-08-09T17:48:51.777Z,26.95
2022-08-09T17:54:55.269Z,27.38
2022-08-09T18:00:59.055Z,26.95
2022-08-09T18:07:04.650Z,27.11
2022-08-09T18:13:43.271Z,28.74
2022-08-09T18:20:57.185Z,29.38
2022-08-09T18:25:57.655Z,29.81
2022-08-09T18:32:00.213Z,31.03
2022-08-09T18:38:02.218Z,32.36
2022-08-09T18:44:13.083Z,34.99
2022-08-09T18:50:15.861Z,35.95
2022-08-09T18:56:20.091Z,37.34
2022-08-09T19:02:32.374Z,39.01
2022-08-09T19:08:35.097Z,40.25
2022-08-09T19:14:43.526Z,40.44
2022-08-09T19:20:45.657Z,41.98
2022-08-09T19:26:58.778Z,42.54
2022-08-09T19:33:00.761Z,43.50
2022-08-09T19:39:05.451Z,43.81
2022-08-09T19:45:08.556Z,43.60
2022-08-09T19:51:10.549Z,44.19
2022-08-09T19:57:12.498Z,44.84
2022-08-09T20:04:08.228Z,45.23
2022-08-09T20:09:45.009Z,46.08
2022-08-09T20:16:33.204Z,47.08
2022-08-09T20:22:10.193Z,47.26
2022-08-09T20:28:24.422Z,47.75
2022-08-09T20:34:30.128Z,47.69
2022-08-09T20:40:32.227Z,48.28
2022-08-09T20:46:43.020Z,49.19
2022-08-09T20:52:46.939Z,48.39
2022-08-09T20:58:54.728Z,50.61
2022-08-09T21:05:50.981Z,51.31
2022-08-09T21:18:24.967Z,52.78
2022-08-09T21:24:08.826Z,53.92
2022-08-09T21:30:13.366Z,54.17
2022-08-09T21:36:25.825Z,54.90
2022-08-09T21:42:30.578Z,55.40
2022-08-09T21:48:32.892Z,55.69
2022-08-09T21:54:34.896Z,55.16
2022-08-09T22:00:37.181Z,55.18
2022-08-09T22:06:40.130Z,56.17
2022-08-09T22:12:49.763Z,56.57
2022-08-09T22:18:54.264Z,57.49
2022-08-09T22:26:06.754Z,58.04
2022-08-09T22:31:19.604Z,59.13
2022-08-09T22:37:23.988Z,60.05
2022-08-09T22:44:03.749Z,60.86
2022-08-09T22:49:53.949Z,60.59
2022-08-09T22:56:29.415Z,61.19
2022-08-09T23:02:20.248Z,61.43
2022-08-09T23:08:41.157Z,62.39
2022-08-09T23:14:43.104Z,62.44
2022-08-09T23:20:46.256Z,61.91
2022-08-09T23:26:48.231Z,62.21
2022-08-09T23:32:50.220Z,62.48
2022-08-09T23:38:52.235Z,62.31
2022-08-09T23:44:54.195Z,62.79
2022-08-09T23:50:56.190Z,62.69
2022-08-09T23:56:58.492Z,63.98
